Time;durP1;ratioP1;P1;durP2;ratioP2;P2;SDS_P1;SDS_P2;PMS_P1;PMS_P2;Temp;Humidity;BMP_temperature;BMP_pressure;BME280_temperature;BME280_humidity;BME280_pressure;Samples;Min_cycle;Max_cycle;Signal;HPM_P1;HPM_P2
2022/11/17 00:01:09;;;;;;;2.03;0.33;;;13.60;99.90;;;;;;5008749;28;20308;-27
2022/11/17 00:03:39;;;;;;;0.53;0.30;;;13.60;99.90;;;;;;5007451;28;20217;-27
2022/11/17 00:06:06;;;;;;;0.37;0.10;;;13.60;99.90;;;;;;5008643;28;20196;-27
2022/11/17 00:08:36;;;;;;;0.43;0.20;;;13.60;99.90;;;;;;5007970;28;20571;-27
2022/11/17 00:11:03;;;;;;;0.40;0.23;;;13.60;99.90;;;;;;5008957;28;20260;-27
2022/11/17 00:16:21;;;;;;;0.70;0.30;;;13.70;99.90;;;;;;5008807;28;20569;-27
2022/11/17 00:21:54;;;;;;;2.60;0.47;;;13.70;99.90;;;;;;5006699;28;20257;-27
2022/11/17 00:24:22;;;;;;;0.83;0.33;;;13.70;99.90;;;;;;5007236;28;20256;-27
2022/11/17 00:27:01;;;;;;;0.50;0.20;;;13.70;99.90;;;;;;5008619;28;20296;-27
2022/11/17 00:29:33;;;;;;;0.63;0.30;;;13.70;99.90;;;;;;5007520;28;20221;-27
2022/11/17 00:35:04;;;;;;;1.50;0.30;;;13.70;99.90;;;;;;5007974;28;20545;-27
2022/11/17 00:37:38;;;;;;;0.73;0.30;;;13.60;99.90;;;;;;5006859;28;20296;-27
2022/11/17 00:40:05;;;;;;;0.60;0.50;;;13.60;99.90;;;;;;5008242;28;20213;-27
2022/11/17 00:42:33;;;;;;;1.27;0.40;;;13.60;99.90;;;;;;5007888;28;20226;-27
2022/11/17 00:45:00;;;;;;;2.43;0.20;;;13.60;99.90;;;;;;5006075;28;20193;-27
2022/11/17 00:47:29;;;;;;;1.77;0.40;;;13.60;99.90;;;;;;5007643;28;20742;-27
2022/11/17 00:49:57;;;;;;;1.60;0.50;;;13.60;99.90;;;;;;5008154;28;20206;-27
2022/11/17 00:52:27;;;;;;;1.20;0.37;;;13.60;99.90;;;;;;5007378;28;20296;-27
2022/11/17 00:54:54;;;;;;;0.40;0.40;;;13.60;99.90;;;;;;5007666;28;20450;-27
2022/11/17 00:57:21;;;;;;;1.27;0.40;;;13.60;99.90;;;;;;5002958;28;20255;-27
2022/11/17 00:59:53;;;;;;;1.33;0.60;;;13.60;99.90;;;;;;4988515;28;20636;-27
2022/11/17 01:02:20;;;;;;;1.80;0.50;;;13.60;99.90;;;;;;4987747;28;20689;-27
2022/11/17 01:04:50;;;;;;;0.80;0.40;;;13.50;99.90;;;;;;4987599;28;20240;-28
2022/11/17 01:07:17;;;;;;;1.00;0.50;;;13.50;99.90;;;;;;4987062;28;20238;-27
2022/11/17 01:09:46;;;;;;;3.53;0.60;;;13.50;99.90;;;;;;4986367;28;20202;-27
2022/11/17 01:12:15;;;;;;;1.57;0.67;;;13.50;99.90;;;;;;4988007;28;20249;-27
2022/11/17 01:14:43;;;;;;;3.47;0.70;;;13.50;99.90;;;;;;4988042;28;20225;-27
2022/11/17 01:17:12;;;;;;;1.43;0.67;;;13.50;99.90;;;;;;4987093;28;20662;-27
2022/11/17 01:19:40;;;;;;;1.27;0.60;;;13.50;99.90;;;;;;4987618;28;20203;-27
2022/11/17 01:22:07;;;;;;;3.73;0.53;;;13.50;99.90;;;;;;4987245;28;20608;-27
2022/11/17 01:24:34;;;;;;;2.73;0.70;;;13.50;99.90;;;;;;4987210;28;20324;-27
2022/11/17 01:27:01;;;;;;;2.17;0.77;;;13.50;99.90;;;;;;5006427;28;20255;-27
2022/11/17 01:29:28;;;;;;;2.13;0.70;;;13.40;99.90;;;;;;5021837;28;20200;-27
2022/11/17 01:31:58;;;;;;;2.80;0.83;;;13.40;99.90;;;;;;5007002;28;21135;-27
2022/11/17 01:34:25;;;;;;;1.63;0.60;;;13.40;99.90;;;;;;5007279;28;20202;-27
2022/11/17 01:39:38;;;;;;;2.43;0.77;;;13.40;99.90;;;;;;5006217;28;20291;-27
2022/11/17 01:42:12;;;;;;;2.07;0.90;;;13.40;99.90;;;;;;5007012;28;20217;-27
2022/11/17 01:44:50;;;;;;;2.63;0.80;;;13.40;99.90;;;;;;5007231;28;20627;-27
2022/11/17 01:47:23;;;;;;;2.40;0.80;;;13.40;99.90;;;;;;5006328;28;20193;-27
2022/11/17 01:49:56;;;;;;;2.40;0.77;;;13.40;99.90;;;;;;5006278;28;20216;-27
2022/11/17 01:52:24;;;;;;;5.43;1.07;;;13.40;99.90;;;;;;5005472;28;20283;-27
2022/11/17 01:55:00;;;;;;;2.07;0.87;;;13.40;99.90;;;;;;5003738;28;20229;-27
2022/11/17 01:57:39;;;;;;;3.13;1.13;;;13.40;99.90;;;;;;5005535;28;20308;-27
2022/11/17 02:00:11;;;;;;;3.00;0.80;;;13.40;99.90;;;;;;5005084;28;20213;-27
2022/11/17 02:02:40;;;;;;;2.80;0.87;;;13.40;99.90;;;;;;5005428;28;20221;-27
2022/11/17 02:05:33;;;;;;;3.63;1.27;;;13.40;99.90;;;;;;5005686;28;20271;-27
2022/11/17 02:08:05;;;;;;;3.60;1.00;;;13.40;99.90;;;;;;4987610;28;20206;-27
2022/11/17 02:10:33;;;;;;;5.67;1.43;;;13.30;99.90;;;;;;5006432;28;20499;-27
2022/11/17 02:13:01;;;;;;;2.97;0.90;;;13.30;99.90;;;;;;5004911;28;20308;-27
2022/11/17 02:15:29;;;;;;;4.23;1.23;;;13.30;99.90;;;;;;4997891;28;20206;-27
2022/11/17 02:18:02;;;;;;;5.33;1.23;;;13.30;99.90;;;;;;4999460;28;20209;-27
2022/11/17 02:20:54;;;;;;;3.53;1.30;;;13.30;99.90;;;;;;5005598;28;20397;-27
2022/11/17 02:23:52;;;;;;;6.00;1.27;;;13.30;99.90;;;;;;5003612;28;20317;-27
2022/11/17 02:26:25;;;;;;;6.60;1.60;;;13.30;99.90;;;;;;5005350;28;20723;-27
2022/11/17 02:29:07;;;;;;;4.57;1.27;;;13.30;99.90;;;;;;5004516;28;20201;-27
2022/11/17 02:31:57;;;;;;;2.53;0.70;;;13.30;99.90;;;;;;5005482;28;20205;-27
2022/11/17 02:34:50;;;;;;;1.67;0.70;;;13.30;99.90;;;;;;5005418;28;20301;-27
2022/11/17 02:37:38;;;;;;;3.90;0.90;;;13.30;99.90;;;;;;5005119;28;20676;-27
2022/11/17 02:40:09;;;;;;;4.00;0.80;;;13.40;99.90;;;;;;5005923;28;20241;-27
2022/11/17 02:45:43;;;;;;;1.90;0.70;;;13.40;99.90;;;;;;5005870;28;20292;-27
2022/11/17 02:48:25;;;;;;;3.37;0.70;;;13.40;99.90;;;;;;5005648;28;20237;-27
2022/11/17 02:50:53;;;;;;;1.43;0.60;;;13.40;99.90;;;;;;5005782;28;20259;-27
2022/11/17 02:53:26;;;;;;;2.83;0.73;;;13.40;99.90;;;;;;5004351;28;20296;-27
2022/11/17 02:55:58;;;;;;;2.67;0.60;;;13.40;99.90;;;;;;5020861;28;20220;-27
2022/11/17 02:58:28;;;;;;;4.03;0.80;;;13.40;99.90;;;;;;5004569;28;20198;-27
2022/11/17 03:01:25;;;;;;;3.70;0.77;;;13.40;99.90;;;;;;5020724;28;20610;-27
2022/11/17 03:04:29;;;;;;;3.83;1.20;;;13.50;99.90;;;;;;5005433;28;20197;-27
2022/11/17 03:07:20;;;;;;;5.70;1.00;;;13.50;99.90;;;;;;5005347;28;20331;-27
2022/11/17 03:10:21;;;;;;;3.30;1.20;;;13.50;99.90;;;;;;5005506;28;20695;-27
2022/11/17 03:13:08;;;;;;;3.00;1.07;;;13.50;99.90;;;;;;5005364;28;20201;-27
2022/11/17 03:16:04;;;;;;;4.20;1.00;;;13.50;99.90;;;;;;5005967;28;20224;-27
2022/11/17 03:19:13;;;;;;;3.10;1.43;;;13.60;99.90;;;;;;5005527;28;20256;-27
2022/11/17 03:21:46;;;;;;;3.33;1.00;;;13.60;99.90;;;;;;5004730;28;20324;-27
2022/11/17 03:24:22;;;;;;;5.10;1.20;;;13.60;99.90;;;;;;5004586;28;20241;-27
2022/11/17 03:27:09;;;;;;;4.53;1.40;;;13.60;99.90;;;;;;5004615;28;20284;-27
2022/11/17 03:29:41;;;;;;;5.43;1.27;;;13.60;99.90;;;;;;5004256;28;20602;-27
2022/11/17 03:32:09;;;;;;;6.97;1.60;;;13.60;99.90;;;;;;5005280;28;20204;-27
2022/11/17 03:34:48;;;;;;;6.33;1.43;;;13.60;99.90;;;;;;5008694;28;20237;-27
2022/11/17 03:37:20;;;;;;;5.80;1.30;;;13.70;99.90;;;;;;5008727;28;20213;-27
2022/11/17 03:40:00;;;;;;;5.67;1.10;;;13.60;99.90;;;;;;5009628;28;20255;-27
2022/11/17 03:42:32;;;;;;;5.30;1.40;;;13.70;99.90;;;;;;5008914;28;20555;-27
2022/11/17 03:45:10;;;;;;;5.67;1.67;;;13.70;99.90;;;;;;5009236;28;20258;-27
2022/11/17 03:47:45;;;;;;;7.93;1.43;;;13.70;99.90;;;;;;5008537;28;20239;-27
2022/11/17 03:50:23;;;;;;;7.30;1.50;;;13.70;99.90;;;;;;5007799;28;20295;-27
2022/11/17 03:52:51;;;;;;;6.57;1.47;;;13.70;99.90;;;;;;5007926;28;20303;-27
2022/11/17 03:55:21;;;;;;;7.57;1.77;;;13.70;99.90;;;;;;5008650;28;20284;-27
2022/11/17 03:57:58;;;;;;;6.10;1.33;;;13.70;99.90;;;;;;5008404;28;20382;-27
2022/11/17 04:00:25;;;;;;;4.70;1.20;;;13.80;99.90;;;;;;5007786;28;20708;-27
2022/11/17 04:02:55;;;;;;;5.30;1.30;;;13.80;99.90;;;;;;5008028;28;20783;-27
2022/11/17 04:05:27;;;;;;;4.33;1.17;;;13.80;99.90;;;;;;5008372;28;20700;-27
2022/11/17 04:07:56;;;;;;;5.00;1.30;;;13.80;99.90;;;;;;5007270;28;20689;-27
2022/11/17 04:10:26;;;;;;;4.20;1.00;;;13.80;99.90;;;;;;5008305;28;20312;-27
2022/11/17 04:15:57;;;;;;;6.13;1.30;;;13.80;99.90;;;;;;5008265;28;20220;-27
2022/11/17 04:18:27;;;;;;;4.23;1.10;;;13.80;99.90;;;;;;5007549;28;20619;-27
2022/11/17 04:20:56;;;;;;;6.17;1.50;;;13.80;99.90;;;;;;5007794;28;20314;-27
2022/11/17 04:23:27;;;;;;;5.00;1.20;;;13.80;99.90;;;;;;5006953;28;20304;-27
2022/11/17 04:28:45;;;;;;;5.43;1.27;;;13.80;99.90;;;;;;5006819;28;20190;-27
2022/11/17 04:31:29;;;;;;;6.77;1.40;;;13.80;99.90;;;;;;5008313;28;20198;-27
2022/11/17 04:34:04;;;;;;;5.10;1.20;;;13.80;99.90;;;;;;5007993;28;20403;-27
2022/11/17 04:36:35;;;;;;;5.83;1.57;;;13.80;99.90;;;;;;5008122;28;20267;-27
2022/11/17 04:39:06;;;;;;;5.23;1.10;;;13.70;99.90;;;;;;5021742;28;20205;-27
2022/11/17 04:44:26;;;;;;;3.63;1.20;;;13.70;99.90;;;;;;5007528;28;20751;-27
2022/11/17 04:46:55;;;;;;;6.47;1.43;;;13.70;99.90;;;;;;5008408;28;20244;-27
2022/11/17 04:49:24;;;;;;;4.47;1.30;;;13.70;99.90;;;;;;5006372;28;20288;-28
2022/11/17 04:51:54;;;;;;;4.60;1.33;;;13.70;99.90;;;;;;5008062;28;20300;-27
2022/11/17 04:54:26;;;;;;;5.80;1.23;;;13.70;99.90;;;;;;5006615;28;20506;-27
2022/11/17 04:56:54;;;;;;;5.70;1.43;;;13.70;99.90;;;;;;5007064;28;20298;-27
2022/11/17 04:59:22;;;;;;;6.50;1.37;;;13.70;99.90;;;;;;5005968;28;20280;-27
2022/11/17 05:01:49;;;;;;;3.23;1.10;;;13.60;99.90;;;;;;5021421;28;20333;-27
2022/11/17 05:05:05;;;;;;;2.97;1.00;;;13.60;99.90;;;;;;5006695;28;20209;-27
2022/11/17 05:07:07;;;;;;;7.30;1.30;;;13.60;99.90;;;;;;5012424;28;20297;-27
2022/11/17 05:09:37;;;;;;;4.63;0.67;;;13.50;99.90;;;;;;5004740;28;20586;-27
2022/11/17 05:14:52;;;;;;;2.27;0.63;;;13.50;99.90;;;;;;5006673;28;20208;-27
2022/11/17 05:17:19;;;;;;;2.77;0.73;;;13.40;99.90;;;;;;5006349;28;20580;-27
2022/11/17 05:19:47;;;;;;;3.63;0.67;;;13.40;99.90;;;;;;5007001;28;20283;-27
2022/11/17 05:25:04;;;;;;;2.40;0.70;;;13.30;99.90;;;;;;5006877;28;20288;-27
2022/11/17 05:27:32;;;;;;;7.97;0.70;;;13.20;99.90;;;;;;5006905;28;20555;-27
2022/11/17 05:30:08;;;;;;;4.77;0.60;;;13.20;99.90;;;;;;5005726;28;20210;-27
2022/11/17 05:32:38;;;;;;;5.47;1.00;;;13.20;99.90;;;;;;5006392;28;20659;-27
2022/11/17 05:35:08;;;;;;;3.77;0.80;;;13.20;99.90;;;;;;5006670;28;20225;-27
2022/11/17 05:37:35;;;;;;;3.47;0.87;;;13.20;99.90;;;;;;5006485;28;20740;-27
2022/11/17 05:40:06;;;;;;;2.20;0.80;;;13.20;99.90;;;;;;5021536;28;20631;-27
2022/11/17 05:42:34;;;;;;;2.87;0.70;;;13.20;99.90;;;;;;5006354;28;20237;-27
2022/11/17 05:45:01;;;;;;;2.40;0.70;;;13.10;99.90;;;;;;5006619;28;20247;-27
2022/11/17 05:47:29;;;;;;;3.60;0.70;;;13.10;99.90;;;;;;5006354;28;20220;-27
2022/11/17 05:50:00;;;;;;;3.43;0.63;;;13.10;99.90;;;;;;5006564;28;20260;-27
2022/11/17 05:52:32;;;;;;;3.93;0.90;;;13.10;99.90;;;;;;5005963;28;20210;-27
2022/11/17 05:55:02;;;;;;;3.67;0.80;;;13.10;99.90;;;;;;5006723;28;20726;-27
2022/11/17 05:57:32;;;;;;;1.33;0.47;;;13.00;99.90;;;;;;5004358;28;20347;-27
2022/11/17 06:00:03;;;;;;;4.07;0.80;;;13.10;99.90;;;;;;4997892;28;20249;-27
2022/11/17 06:02:37;;;;;;;2.63;0.60;;;13.00;99.90;;;;;;4986385;28;20230;-27
2022/11/17 06:05:04;;;;;;;2.07;0.53;;;13.00;99.90;;;;;;5011447;28;20217;-27
2022/11/17 06:07:33;;;;;;;1.37;0.53;;;13.00;99.90;;;;;;5004430;28;20228;-27
2022/11/17 06:10:00;;;;;;;4.40;0.77;;;13.00;99.90;;;;;;5005341;28;20633;-27
2022/11/17 06:12:27;;;;;;;1.70;0.40;;;13.00;99.90;;;;;;5002300;28;20316;-27
2022/11/17 06:14:54;;;;;;;3.20;0.67;;;13.00;99.90;;;;;;5000773;28;21012;-27
2022/11/17 06:17:29;;;;;;;2.00;0.50;;;13.00;99.90;;;;;;5001517;28;20774;-27
2022/11/17 06:20:03;;;;;;;2.63;0.60;;;12.90;99.90;;;;;;5002554;28;20324;-27
2022/11/17 06:22:33;;;;;;;3.60;0.77;;;13.00;99.90;;;;;;5004771;28;20666;-27
2022/11/17 06:25:07;;;;;;;6.67;1.03;;;13.00;99.90;;;;;;5005830;28;20720;-27
2022/11/17 06:27:43;;;;;;;4.63;1.00;;;12.90;99.90;;;;;;5020188;28;20293;-27
2022/11/17 06:30:10;;;;;;;2.20;0.70;;;12.90;99.90;;;;;;5005712;28;20217;-27
2022/11/17 06:32:42;;;;;;;2.20;0.50;;;12.90;99.90;;;;;;5004227;28;20313;-27
2022/11/17 06:35:15;;;;;;;2.30;0.50;;;12.90;99.90;;;;;;4991375;28;20654;-27
2022/11/17 06:37:45;;;;;;;5.13;1.30;;;12.80;99.90;;;;;;5004445;28;20222;-27
2022/11/17 06:40:12;;;;;;;10.73;1.87;;;12.80;99.90;;;;;;5005768;28;20756;-27
2022/11/17 06:45:27;;;;;;;5.17;0.97;;;12.80;99.90;;;;;;5003798;28;20283;-28
2022/11/17 06:47:57;;;;;;;7.93;1.30;;;12.70;99.90;;;;;;5004204;28;20291;-27
2022/11/17 06:50:28;;;;;;;1.70;0.50;;;12.70;99.90;;;;;;5005353;28;20684;-27
2022/11/17 06:53:00;;;;;;;2.40;0.70;;;12.70;99.90;;;;;;5004512;28;20240;-28
2022/11/17 06:55:30;;;;;;;2.17;0.50;;;12.70;99.90;;;;;;4997383;28;20648;-27
2022/11/17 06:58:01;;;;;;;4.30;0.80;;;12.70;99.90;;;;;;4994383;28;20217;-27
2022/11/17 07:00:29;;;;;;;4.23;0.50;;;12.70;99.90;;;;;;5000859;28;20201;-27
2022/11/17 07:03:05;;;;;;;4.30;0.97;;;12.70;99.90;;;;;;5004892;28;20639;-27
2022/11/17 07:05:36;;;;;;;6.07;1.07;;;12.70;99.90;;;;;;5015485;28;20212;-27
2022/11/17 07:08:09;;;;;;;2.70;0.53;;;12.70;99.90;;;;;;5026875;28;20193;-27
2022/11/17 07:10:39;;;;;;;2.47;0.60;;;12.70;99.90;;;;;;5012977;28;20547;-27
2022/11/17 07:13:18;;;;;;;3.13;0.83;;;12.70;99.90;;;;;;5007397;28;20205;-27
2022/11/17 07:15:45;;;;;;;8.10;0.80;;;12.70;99.90;;;;;;5007926;28;20225;-27
2022/11/17 07:18:15;;;;;;;4.03;0.87;;;12.70;99.90;;;;;;5011951;28;20212;-27
2022/11/17 07:20:42;;;;;;;2.83;0.70;;;12.70;99.90;;;;;;5008130;28;20213;-27
2022/11/17 07:23:11;;;;;;;4.70;1.10;;;12.70;99.90;;;;;;5008101;28;20244;-27
2022/11/17 07:25:39;;;;;;;4.57;1.03;;;12.70;99.90;;;;;;5004826;28;20288;-27
2022/11/17 07:28:09;;;;;;;5.37;0.97;;;12.70;99.90;;;;;;5012840;28;20196;-27
2022/11/17 07:30:41;;;;;;;4.47;1.10;;;12.70;99.90;;;;;;5010789;28;20205;-27
2022/11/17 07:33:09;;;;;;;2.83;1.33;;;12.60;99.90;;;;;;5027522;28;20311;-27
2022/11/17 07:35:38;;;;;;;6.60;0.73;;;12.60;99.90;;;;;;5025772;28;20212;-27
2022/11/17 07:38:07;;;;;;;3.30;0.90;;;12.60;99.90;;;;;;5019553;28;20197;-27
2022/11/17 07:40:42;;;;;;;4.03;0.70;;;12.60;99.90;;;;;;5009435;28;20333;-28
2022/11/17 07:43:10;;;;;;;10.90;1.47;;;12.70;99.90;;;;;;5000855;28;20237;-27
2022/11/17 07:45:40;;;;;;;3.33;0.60;;;12.70;99.90;;;;;;5018778;28;20210;-27
2022/11/17 07:48:07;;;;;;;2.97;0.80;;;12.70;99.90;;;;;;5019536;28;20228;-28
2022/11/17 07:50:40;;;;;;;2.80;0.50;;;12.70;99.90;;;;;;5028636;28;20244;-28
2022/11/17 07:53:07;;;;;;;4.57;1.20;;;12.70;99.90;;;;;;5011107;28;20205;-28
2022/11/17 07:55:39;;;;;;;3.50;0.80;;;12.70;99.90;;;;;;5016404;28;21301;-28
2022/11/17 07:58:06;;;;;;;1.60;0.70;;;12.70;99.90;;;;;;4994800;28;20276;-28
2022/11/17 08:00:37;;;;;;;5.10;0.97;;;12.70;99.90;;;;;;4994735;28;20253;-28
2022/11/17 08:03:08;;;;;;;7.40;0.93;;;12.70;99.90;;;;;;5007728;28;20218;-28
2022/11/17 08:05:39;;;;;;;4.80;0.83;;;12.80;99.90;;;;;;5010322;28;20924;-28
2022/11/17 08:08:16;;;;;;;2.83;0.70;;;12.70;99.90;;;;;;5012029;28;20200;-28
2022/11/17 08:10:44;;;;;;;3.73;0.90;;;12.70;99.90;;;;;;5026279;28;20584;-28
2022/11/17 08:13:14;;;;;;;1.67;0.50;;;12.70;99.90;;;;;;5001406;28;20227;-28
2022/11/17 08:15:41;;;;;;;3.67;0.70;;;12.70;99.90;;;;;;5006430;28;20202;-28
2022/11/17 08:18:08;;;;;;;2.53;0.93;;;12.70;99.90;;;;;;5014479;28;20204;-28
2022/11/17 08:20:38;;;;;;;4.83;0.73;;;12.70;99.90;;;;;;5023739;28;20205;-28
2022/11/17 08:23:06;;;;;;;4.17;0.60;;;12.70;99.90;;;;;;5019993;28;20221;-28
2022/11/17 08:25:36;;;;;;;2.37;0.80;;;12.70;99.90;;;;;;5016287;28;20600;-28
2022/11/17 08:28:03;;;;;;;3.73;1.07;;;12.70;99.90;;;;;;5016129;28;20244;-28
2022/11/17 08:30:33;;;;;;;5.37;1.13;;;12.80;99.90;;;;;;5011125;28;20711;-28
2022/11/17 08:33:01;;;;;;;12.00;2.13;;;12.80;99.90;;;;;;4995849;28;20505;-28
2022/11/17 08:35:36;;;;;;;2.73;0.90;;;12.80;99.90;;;;;;5015522;28;20217;-28
2022/11/17 08:38:04;;;;;;;6.57;0.90;;;12.80;99.90;;;;;;5011281;28;20502;-28
2022/11/17 08:40:32;;;;;;;9.63;1.57;;;12.70;99.90;;;;;;5024252;28;20840;-28
2022/11/17 08:42:59;;;;;;;4.60;1.10;;;12.80;99.90;;;;;;5020016;28;20279;-28
2022/11/17 08:45:30;;;;;;;4.27;1.20;;;12.80;99.90;;;;;;5010140;28;20202;-28
2022/11/17 08:47:57;;;;;;;2.67;0.90;;;12.80;99.90;;;;;;5023483;28;20286;-28
2022/11/17 08:50:27;;;;;;;3.30;1.40;;;12.80;99.90;;;;;;5004745;28;20222;-28
2022/11/17 08:52:57;;;;;;;5.80;0.93;;;12.80;99.90;;;;;;5001114;28;20202;-28
2022/11/17 08:55:25;;;;;;;5.60;1.23;;;12.80;99.90;;;;;;5004870;28;20675;-28
2022/11/17 08:57:55;;;;;;;2.23;0.60;;;12.80;99.90;;;;;;5005206;28;20222;-28
2022/11/17 09:00:22;;;;;;;4.83;0.60;;;12.80;99.90;;;;;;5003239;28;20552;-28
2022/11/17 09:02:49;;;;;;;4.50;0.60;;;12.80;99.90;;;;;;5013953;28;20245;-28
2022/11/17 09:05:19;;;;;;;6.90;1.00;;;12.80;99.90;;;;;;5004449;28;20217;-28
2022/11/17 09:07:47;;;;;;;4.03;0.90;;;12.80;99.90;;;;;;5000216;28;20993;-28
2022/11/17 09:10:19;;;;;;;1.33;0.53;;;12.90;99.90;;;;;;5002548;28;20751;-28
2022/11/17 09:12:46;;;;;;;3.97;0.80;;;12.90;99.90;;;;;;5008269;28;20223;-28
2022/11/17 09:15:13;;;;;;;4.40;0.67;;;12.90;99.90;;;;;;5010966;28;20213;-28
2022/11/17 09:17:42;;;;;;;3.23;0.80;;;13.00;99.90;;;;;;5005695;28;20683;-28
2022/11/17 09:20:09;;;;;;;6.30;1.20;;;13.00;99.90;;;;;;5014192;28;20287;-28
2022/11/17 09:22:39;;;;;;;3.20;0.50;;;13.00;99.90;;;;;;5005123;28;20202;-28
2022/11/17 09:25:07;;;;;;;3.07;0.70;;;13.00;99.90;;;;;;5005284;28;20205;-28
2022/11/17 09:27:41;;;;;;;7.43;0.70;;;13.00;99.90;;;;;;5003895;28;20671;-28
2022/11/17 09:30:11;;;;;;;3.53;0.60;;;13.10;99.90;;;;;;4986789;28;20202;-28
2022/11/17 09:32:41;;;;;;;2.63;0.70;;;13.10;99.90;;;;;;5003006;28;20222;-28
2022/11/17 09:35:10;;;;;;;2.73;0.63;;;13.10;99.90;;;;;;5022597;28;20197;-28
2022/11/17 09:37:37;;;;;;;3.80;0.90;;;13.20;99.90;;;;;;5016345;28;20213;-29
2022/11/17 09:40:13;;;;;;;3.63;0.60;;;13.20;99.90;;;;;;5017281;28;20220;-29
2022/11/17 09:42:42;;;;;;;4.10;0.73;;;13.20;99.90;;;;;;5011338;28;20200;-28
2022/11/17 09:45:21;;;;;;;5.67;0.87;;;13.20;99.90;;;;;;5006506;28;20202;-28
2022/11/17 09:48:18;;;;;;;3.60;0.70;;;13.30;99.90;;;;;;5005465;28;20315;-29
2022/11/17 09:51:11;;;;;;;5.80;0.80;;;13.30;99.90;;;;;;5013697;28;20555;-28
2022/11/17 09:53:45;;;;;;;2.63;0.70;;;13.30;99.90;;;;;;4994492;28;20197;-29
2022/11/17 09:56:15;;;;;;;3.00;1.43;;;13.30;99.90;;;;;;5023457;28;20213;-29
2022/11/17 09:58:57;;;;;;;3.07;0.90;;;13.30;99.90;;;;;;4999646;28;20221;-29
2022/11/17 10:01:27;;;;;;;6.10;1.27;;;13.30;99.90;;;;;;5004805;28;20201;-29
2022/11/17 10:03:58;;;;;;;6.10;1.00;;;13.30;99.90;;;;;;5005869;28;20637;-28
2022/11/17 10:06:28;;;;;;;2.60;0.50;;;13.40;99.90;;;;;;5005817;28;20206;-29
2022/11/17 10:09:25;;;;;;;3.70;0.77;;;13.40;99.90;;;;;;5004461;28;20220;-28
2022/11/17 10:12:00;;;;;;;5.50;0.67;;;13.40;99.90;;;;;;4985510;28;20205;-29
2022/11/17 10:14:33;;;;;;;4.07;0.60;;;13.40;99.90;;;;;;4986998;28;20588;-29
2022/11/17 10:17:00;;;;;;;5.47;0.97;;;13.50;99.90;;;;;;4986423;28;20214;-29
2022/11/17 10:19:31;;;;;;;4.97;0.90;;;13.50;99.90;;;;;;4995822;28;20259;-29
2022/11/17 10:22:01;;;;;;;3.33;0.80;;;13.50;99.90;;;;;;5005355;28;20618;-29
2022/11/17 10:24:49;;;;;;;4.23;0.93;;;13.50;99.90;;;;;;5005335;28;20594;-29
2022/11/17 10:27:39;;;;;;;5.27;0.80;;;13.50;99.90;;;;;;5039656;28;20212;-28
2022/11/17 10:30:18;;;;;;;2.60;0.67;;;13.50;99.90;;;;;;4985895;28;20236;-28
2022/11/17 10:32:54;;;;;;;3.53;0.83;;;13.50;99.90;;;;;;4986467;28;20654;-28
2022/11/17 10:35:33;;;;;;;2.57;0.80;;;13.50;99.90;;;;;;4985828;28;20272;-28
2022/11/17 10:38:19;;;;;;;3.97;1.13;;;13.50;99.90;;;;;;4984523;28;20197;-28
2022/11/17 10:40:51;;;;;;;2.90;0.90;;;13.50;99.90;;;;;;4995619;28;20264;-28
2022/11/17 10:43:26;;;;;;;2.33;0.70;;;13.50;99.90;;;;;;5001623;28;20287;-28
2022/11/17 10:45:59;;;;;;;7.30;1.13;;;13.60;99.90;;;;;;5000711;28;20292;-28
2022/11/17 10:48:28;;;;;;;3.07;0.83;;;13.60;99.90;;;;;;5007418;28;20237;-28
2022/11/17 10:51:08;;;;;;;7.07;0.90;;;13.60;99.90;;;;;;5016393;28;20209;-28
2022/11/17 10:53:43;;;;;;;18.00;1.60;;;13.60;99.90;;;;;;5000957;28;20203;-28
2022/11/17 10:56:20;;;;;;;2.73;0.87;;;13.70;99.90;;;;;;5003514;28;20201;-28
2022/11/17 10:59:12;;;;;;;3.23;0.70;;;13.70;99.90;;;;;;4999346;28;20490;-28
2022/11/17 11:01:44;;;;;;;6.17;1.00;;;13.70;99.90;;;;;;4995740;28;20267;-28
2022/11/17 11:04:35;;;;;;;4.27;1.00;;;13.70;99.90;;;;;;5010934;28;20751;-28
2022/11/17 11:07:09;;;;;;;4.40;1.13;;;13.70;99.90;;;;;;4985161;28;20221;-28
2022/11/17 11:09:53;;;;;;;4.90;0.80;;;13.60;99.90;;;;;;4995622;28;20221;-28
2022/11/17 11:12:33;;;;;;;6.37;0.80;;;13.60;99.90;;;;;;5007685;28;20759;-28
2022/11/17 11:15:01;;;;;;;6.00;1.27;;;13.70;99.90;;;;;;5004751;28;20295;-28
2022/11/17 11:17:30;;;;;;;5.07;1.20;;;13.70;99.90;;;;;;5003584;28;20225;-28
2022/11/17 11:19:58;;;;;;;6.80;1.10;;;13.70;99.90;;;;;;4999594;28;20295;-28
2022/11/17 11:22:47;;;;;;;9.47;1.43;;;13.80;99.90;;;;;;5000332;28;20201;-28
2022/11/17 11:25:39;;;;;;;5.47;1.27;;;13.80;99.90;;;;;;5000798;28;20283;-28
2022/11/17 11:28:10;;;;;;;2.20;0.77;;;13.80;99.90;;;;;;5003706;28;20204;-28
2022/11/17 11:31:01;;;;;;;4.93;0.90;;;13.80;99.90;;;;;;5015620;28;20213;-28
2022/11/17 11:33:37;;;;;;;2.43;0.80;;;13.80;99.90;;;;;;4992260;28;20230;-28
2022/11/17 11:36:42;;;;;;;3.07;0.97;;;13.90;99.90;;;;;;5021614;28;20698;-28
2022/11/17 11:39:29;;;;;;;2.57;0.70;;;13.90;99.90;;;;;;5011742;28;20222;-28
2022/11/17 11:42:02;;;;;;;4.43;1.10;;;13.90;99.90;;;;;;5004627;28;20212;-28
2022/11/17 11:44:58;;;;;;;6.33;1.07;;;13.90;99.90;;;;;;4999555;28;20303;-28
2022/11/17 11:47:25;;;;;;;6.77;1.10;;;13.80;99.90;;;;;;5019152;28;20224;-28
2022/11/17 11:50:19;;;;;;;4.67;0.93;;;13.80;99.90;;;;;;5004878;28;20210;-28
2022/11/17 11:53:04;;;;;;;3.17;1.00;;;13.90;99.90;;;;;;4985489;28;20634;-28
2022/11/17 11:55:39;;;;;;;7.47;1.10;;;13.90;99.90;;;;;;4989814;28;20900;-28
2022/11/17 11:58:30;;;;;;;10.63;1.27;;;13.90;99.90;;;;;;5017224;28;20217;-28
2022/11/17 12:01:07;;;;;;;4.87;1.27;;;14.00;99.90;;;;;;5018945;28;20223;-28
2022/11/17 12:03:38;;;;;;;4.17;0.70;;;13.90;99.90;;;;;;5016917;28;20232;-28
2022/11/17 12:06:39;;;;;;;2.77;0.63;;;13.90;99.90;;;;;;5026859;28;20205;-28
2022/11/17 12:09:30;;;;;;;9.83;1.10;;;13.90;99.90;;;;;;5010766;28;20200;-28
2022/11/17 12:12:06;;;;;;;4.20;0.60;;;13.90;99.90;;;;;;5026888;28;20205;-28
2022/11/17 12:14:36;;;;;;;2.70;0.80;;;13.90;99.90;;;;;;5014112;28;20676;-28
2022/11/17 12:17:17;;;;;;;3.77;0.90;;;13.90;99.90;;;;;;5027499;28;20243;-28
2022/11/17 12:19:53;;;;;;;2.53;0.60;;;13.90;99.90;;;;;;5008511;28;20201;-28
2022/11/17 12:22:31;;;;;;;2.77;0.70;;;13.90;99.90;;;;;;5026132;28;20634;-27
2022/11/17 12:25:16;;;;;;;5.87;1.00;;;14.00;99.90;;;;;;5004968;28;20308;-28
2022/11/17 12:27:48;;;;;;;57.90;7.40;;;13.90;99.90;;;;;;5003442;28;20700;-28
2022/11/17 12:30:36;;;;;;;8.17;1.53;;;14.00;99.90;;;;;;5010953;28;20229;-28
2022/11/17 12:33:07;;;;;;;11.90;2.77;;;14.00;99.90;;;;;;5024196;28;20323;-28
2022/11/17 12:35:40;;;;;;;6.00;0.70;;;14.00;99.90;;;;;;5010319;28;20278;-28
2022/11/17 12:38:14;;;;;;;10.67;1.17;;;14.10;99.90;;;;;;5026325;28;20205;-28
2022/11/17 12:40:42;;;;;;;4.30;0.80;;;14.10;99.90;;;;;;5017389;28;20221;-28
2022/11/17 12:43:23;;;;;;;2.07;0.80;;;14.10;99.90;;;;;;5020225;28;20641;-28
2022/11/17 12:45:54;;;;;;;3.33;1.03;;;14.10;99.90;;;;;;5002730;28;20628;-28
2022/11/17 12:48:34;;;;;;;4.53;0.60;;;14.00;99.90;;;;;;4994287;28;20230;-29
2022/11/17 12:51:29;;;;;;;2.55;0.55;;;14.10;99.90;;;;;;5025908;28;20200;-30
2022/11/17 12:54:21;;;;;;;6.90;1.03;;;14.10;99.90;;;;;;5010471;28;20355;-30
2022/11/17 12:57:03;;;;;;;3.13;0.60;;;14.20;99.90;;;;;;5019953;28;20217;-31
2022/11/17 12:59:48;;;;;;;3.77;0.80;;;14.20;99.90;;;;;;5001144;28;20762;-28
2022/11/17 13:02:52;;;;;;;5.03;1.40;;;14.20;99.90;;;;;;5005341;28;20647;-28
2022/11/17 13:05:22;;;;;;;2.90;0.77;;;14.20;99.90;;;;;;5015656;28;20222;-28
2022/11/17 13:08:18;;;;;;;3.17;0.57;;;14.20;99.90;;;;;;5012178;28;20197;-28
2022/11/17 13:10:48;;;;;;;3.70;0.60;;;14.30;99.90;;;;;;5014543;28;20197;-28
2022/11/17 13:13:20;;;;;;;2.73;0.77;;;14.30;99.90;;;;;;5005114;28;20212;-28
2022/11/17 13:15:53;;;;;;;3.47;0.70;;;14.30;99.90;;;;;;5006589;28;20280;-28
2022/11/17 13:18:36;;;;;;;1.83;0.67;;;14.30;99.90;;;;;;5005757;28;20711;-28
2022/11/17 13:21:14;;;;;;;1.87;0.60;;;14.40;99.90;;;;;;5041836;28;20196;-28
2022/11/17 13:23:44;;;;;;;1.93;0.70;;;14.40;99.90;;;;;;5009665;28;20223;-28
2022/11/17 13:26:26;;;;;;;1.87;0.60;;;14.40;99.90;;;;;;5005582;28;20225;-28
2022/11/17 13:29:13;;;;;;;2.90;0.60;;;14.40;99.90;;;;;;5013244;28;20255;-28
2022/11/17 13:31:40;;;;;;;1.93;0.80;;;14.40;99.90;;;;;;5008601;28;20212;-28
2022/11/17 13:34:11;;;;;;;3.72;0.60;;;14.40;99.90;;;;;;5006492;28;20199;-28
2022/11/17 13:37:00;;;;;;;1.15;0.70;;;14.50;99.90;;;;;;5026508;28;20214;-28
2022/11/17 13:39:28;;;;;;;3.00;0.77;;;14.50;99.90;;;;;;4996774;28;20225;-28
2022/11/17 13:41:59;;;;;;;1.47;0.80;;;14.50;99.90;;;;;;5000131;28;20294;-28
2022/11/17 13:44:27;;;;;;;2.70;0.90;;;14.50;99.90;;;;;;5006129;28;20437;-27
2022/11/17 13:46:54;;;;;;;3.43;0.67;;;14.50;99.90;;;;;;5022369;28;20199;-28
2022/11/17 13:49:38;;;;;;;4.23;0.77;;;14.50;99.90;;;;;;5014464;28;20236;-28
2022/11/17 13:52:32;;;;;;;7.78;1.70;;;14.50;99.90;;;;;;5025840;28;20193;-28